Time;durP1;ratioP1;P1;durP2;ratioP2;P2;SDS_P1;SDS_P2;PMS_P1;PMS_P2;Temp;Humidity;BMP_temperature;BMP_pressure;BME280_temperature;BME280_humidity;BME280_pressure;Samples;Min_cycle;Max_cycle;Signal;HPM_P1;HPM_P2
2022/03/19 00:00:19;;;;;;;;;;;;;;;6.31;53.72;102177.69;4382833;32;33057;-80
2022/03/19 00:02:47;;;;;;;;;;;;;;;6.45;53.59;102176.25;4384901;32;33796;-80
2022/03/19 00:05:15;;;;;;;;;;;;;;;6.28;54.26;102173.41;4383376;32;36140;-80
2022/03/19 00:07:42;;;;;;;;;;;;;;;6.30;54.14;102175.97;4382993;32;32802;-80
2022/03/19 00:10:10;;;;;;;;;;;;;;;6.38;54.01;102165.97;4371070;32;33183;-80
2022/03/19 00:12:39;;;;;;;;;;;;;;;6.40;53.55;102170.28;4380842;32;35362;-80
2022/03/19 00:15:09;;;;;;;;;;;;;;;6.60;52.94;102166.84;4381578;32;33173;-80
2022/03/19 00:17:37;;;;;;;;;;;;;;;6.60;52.88;102164.22;4382764;32;33433;-80
2022/03/19 00:20:06;;;;;;;;;;;;;;;6.40;53.39;102165.00;4397765;32;33985;-81
2022/03/19 00:22:36;;;;;;;;;;;;;;;6.60;53.02;102162.41;4370503;32;34449;-81
2022/03/19 00:25:05;;;;;;;;;;;;;;;6.57;53.22;102161.66;4384230;32;35465;-80
2022/03/19 00:27:32;;;;;;;;;;;;;;;6.70;52.68;102163.75;4376867;32;33813;-81
2022/03/19 00:30:00;;;;;;;;;;;;;;;6.78;52.22;102158.13;4382912;32;32449;-80
2022/03/19 00:32:49;;;;;;;;;;;;;;;6.79;52.07;102159.91;4391531;32;34970;-80
2022/03/19 00:35:16;;;;;;;;;;;;;;;6.67;52.46;102149.78;4384899;32;35342;-80
2022/03/19 00:37:46;;;;;;;;;;;;;;;6.61;52.88;102158.00;4385560;32;33328;-80
2022/03/19 00:40:15;;;;;;;;;;;;;;;6.77;52.35;102157.31;4387527;32;34567;-80
2022/03/19 00:42:44;;;;;;;;;;;;;;;6.71;52.36;102151.41;4396133;32;35305;-80
2022/03/19 00:45:13;;;;;;;;;;;;;;;6.88;51.89;102149.78;4385682;32;34768;-80
2022/03/19 00:47:40;;;;;;;;;;;;;;;6.80;52.09;102143.94;4389251;32;33197;-80
2022/03/19 00:50:09;;;;;;;;;;;;;;;6.74;52.17;102152.16;4375270;32;32927;-81
2022/03/19 00:52:36;;;;;;;;;;;;;;;6.85;52.05;102147.25;4383587;32;34727;-80
2022/03/19 00:55:05;;;;;;;;;;;;;;;6.90;51.78;102144.44;4393939;32;35007;-81
2022/03/19 00:57:37;;;;;;;;;;;;;;;6.97;51.70;102140.56;4385030;32;32404;-80
2022/03/19 01:00:05;;;;;;;;;;;;;;;7.08;51.26;102135.72;4390008;32;33337;-81
2022/03/19 01:02:34;;;;;;;;;;;;;;;6.94;52.02;102136.28;4393434;32;35989;-80
2022/03/19 01:05:02;;;;;;;;;;;;;;;6.97;52.03;102135.28;4400085;32;34512;-81
2022/03/19 01:07:30;;;;;;;;;;;;;;;6.78;52.56;102126.41;4388536;32;33364;-80
2022/03/19 01:09:58;;;;;;;;;;;;;;;6.99;52.01;102136.94;4389672;32;32908;-80
2022/03/19 01:12:26;;;;;;;;;;;;;;;7.00;52.11;102122.78;4380120;32;34241;-80
2022/03/19 01:14:54;;;;;;;;;;;;;;;7.08;51.83;102122.47;4409151;32;33013;-80
2022/03/19 01:17:24;;;;;;;;;;;;;;;7.05;51.89;102131.41;4391388;32;33939;-81
2022/03/19 01:19:52;;;;;;;;;;;;;;;7.01;52.39;102124.50;4387859;32;33573;-80
2022/03/19 01:22:23;;;;;;;;;;;;;;;7.15;52.01;102131.84;4405862;32;36073;-80
2022/03/19 01:24:51;;;;;;;;;;;;;;;7.18;51.78;102132.56;4397742;32;34156;-80
2022/03/19 01:27:20;;;;;;;;;;;;;;;7.16;51.65;102125.66;4389675;32;34310;-80
2022/03/19 01:29:47;;;;;;;;;;;;;;;7.19;51.41;102125.50;4393064;32;32744;-80
2022/03/19 01:32:15;;;;;;;;;;;;;;;7.29;51.07;102118.88;4393440;32;35931;-81
2022/03/19 01:34:42;;;;;;;;;;;;;;;7.28;51.09;102117.16;4397166;32;34073;-80
2022/03/19 01:37:10;;;;;;;;;;;;;;;7.28;50.98;102110.06;4396305;32;33258;-80
2022/03/19 01:39:39;;;;;;;;;;;;;;;7.33;50.76;102107.22;4398758;32;33571;-80
2022/03/19 01:42:07;;;;;;;;;;;;;;;7.31;50.67;102103.78;4372937;32;34189;-81
2022/03/19 01:44:35;;;;;;;;;;;;;;;7.23;50.74;102096.19;4384899;32;34528;-80
2022/03/19 01:47:06;;;;;;;;;;;;;;;7.27;50.59;102104.87;4371925;32;33276;-80
2022/03/19 01:49:36;;;;;;;;;;;;;;;7.17;50.86;102099.09;4396578;32;35098;-81
2022/03/19 01:52:05;;;;;;;;;;;;;;;7.15;50.92;102103.59;4359592;32;35552;-81
2022/03/19 01:54:33;;;;;;;;;;;;;;;6.99;51.24;102094.59;4371703;32;33844;-80
2022/03/19 01:57:00;;;;;;;;;;;;;;;7.18;50.86;102092.03;4371570;32;32136;-80
2022/03/19 01:59:34;;;;;;;;;;;;;;;7.04;51.17;102095.28;4384514;32;32794;-79
2022/03/19 02:02:05;;;;;;;;;;;;;;;6.82;51.51;102089.16;4381998;32;35215;-80
2022/03/19 02:04:34;;;;;;;;;;;;;;;6.92;51.21;102097.59;4396441;32;34891;-81
2022/03/19 02:07:02;;;;;;;;;;;;;;;6.96;50.95;102093.88;4384876;32;34753;-80
2022/03/19 02:09:29;;;;;;;;;;;;;;;6.70;51.49;102083.56;4370821;32;33248;-81
2022/03/19 02:11:59;;;;;;;;;;;;;;;6.89;50.96;102079.22;4399519;32;34865;-80
2022/03/19 02:14:26;;;;;;;;;;;;;;;6.83;50.97;102076.81;4398868;32;34410;-80
2022/03/19 02:16:55;;;;;;;;;;;;;;;6.78;51.11;102074.37;4383713;32;34349;-80
2022/03/19 02:19:24;;;;;;;;;;;;;;;6.91;51.01;102080.00;4383777;32;33285;-80
2022/03/19 02:21:51;;;;;;;;;;;;;;;6.75;51.50;102078.91;4371674;32;34182;-80
2022/03/19 02:27:07;;;;;;;;;;;;;;;6.71;51.89;102074.69;4388283;32;32968;-81
2022/03/19 02:29:37;;;;;;;;;;;;;;;6.35;52.68;102082.34;4382944;32;34892;-80
2022/03/19 02:32:05;;;;;;;;;;;;;;;6.40;52.36;102083.03;4403763;32;35260;-80
2022/03/19 02:34:34;;;;;;;;;;;;;;;6.47;52.09;102073.94;4398906;32;34623;-80
2022/03/19 02:37:01;;;;;;;;;;;;;;;6.38;51.95;102066.38;4385651;32;33093;-80
2022/03/19 02:39:35;;;;;;;;;;;;;;;6.41;51.69;102066.25;4375998;32;32375;-81
2022/03/19 02:42:04;;;;;;;;;;;;;;;6.21;52.19;102074.13;4408870;32;35644;-81
2022/03/19 02:44:32;;;;;;;;;;;;;;;6.22;52.28;102072.34;4393195;32;35394;-79
2022/03/19 02:47:02;;;;;;;;;;;;;;;6.26;52.13;102074.78;4406524;32;33013;-80
2022/03/19 02:49:30;;;;;;;;;;;;;;;6.34;51.71;102063.94;4404100;32;34146;-80
2022/03/19 02:51:57;;;;;;;;;;;;;;;6.20;52.14;102071.53;4393021;32;34043;-80
2022/03/19 02:54:28;;;;;;;;;;;;;;;6.20;52.19;102068.91;4403558;32;34622;-80
2022/03/19 02:57:00;;;;;;;;;;;;;;;6.13;52.39;102067.41;4396832;32;31993;-80
2022/03/19 02:59:28;;;;;;;;;;;;;;;6.09;52.21;102064.06;4405662;32;33592;-80
2022/03/19 03:01:57;;;;;;;;;;;;;;;6.03;52.39;102064.31;4405292;32;35244;-80
2022/03/19 03:04:25;;;;;;;;;;;;;;;6.10;52.09;102062.28;4409659;32;34641;-80
2022/03/19 03:06:53;;;;;;;;;;;;;;;5.77;53.26;102056.50;4399593;32;32141;-80
2022/03/19 03:09:22;;;;;;;;;;;;;;;6.03;52.57;102061.66;4391056;32;34274;-80
2022/03/19 03:11:50;;;;;;;;;;;;;;;6.00;52.70;102059.16;4380764;32;34872;-80
2022/03/19 03:14:20;;;;;;;;;;;;;;;6.00;52.70;102067.09;4393675;32;33509;-80
2022/03/19 03:16:50;;;;;;;;;;;;;;;5.99;52.66;102054.78;4406159;32;33889;-80
2022/03/19 03:19:19;;;;;;;;;;;;;;;6.03;52.45;102053.75;4386031;32;33845;-80
2022/03/19 03:21:47;;;;;;;;;;;;;;;6.02;52.46;102053.78;4374352;32;34074;-79
2022/03/19 03:24:15;;;;;;;;;;;;;;;5.90;52.99;102055.16;4399894;32;34776;-80
2022/03/19 03:26:43;;;;;;;;;;;;;;;5.98;52.70;102053.03;4375098;32;33360;-79
2022/03/19 03:29:11;;;;;;;;;;;;;;;5.93;53.04;102057.66;4373959;32;33149;-79
2022/03/19 03:31:38;;;;;;;;;;;;;;;5.90;53.24;102054.28;4376835;32;33952;-80
2022/03/19 03:34:08;;;;;;;;;;;;;;;5.97;53.17;102059.25;4374505;32;34369;-80
2022/03/19 03:36:38;;;;;;;;;;;;;;;5.92;53.30;102058.59;4358210;32;32906;-80
2022/03/19 03:39:07;;;;;;;;;;;;;;;5.95;53.21;102050.53;4380750;32;33443;-80
2022/03/19 03:41:35;;;;;;;;;;;;;;;5.99;52.94;102057.44;4371673;32;35472;-79
2022/03/19 03:44:03;;;;;;;;;;;;;;;5.83;53.95;102053.66;4384182;32;36405;-80
2022/03/19 03:46:32;;;;;;;;;;;;;;;5.89;53.55;102050.75;4363925;32;34343;-79
2022/03/19 03:48:59;;;;;;;;;;;;;;;5.82;53.66;102056.34;4358863;32;33273;-79
2022/03/19 03:51:26;;;;;;;;;;;;;;;5.92;53.34;102055.94;4369769;32;34582;-79
2022/03/19 03:53:54;;;;;;;;;;;;;;;5.98;52.92;102058.31;4375781;32;34864;-80
2022/03/19 03:56:22;;;;;;;;;;;;;;;5.89;53.08;102056.03;4375299;32;33295;-79
2022/03/19 03:58:49;;;;;;;;;;;;;;;5.79;53.83;102053.84;4369730;32;32757;-79
2022/03/19 04:01:17;;;;;;;;;;;;;;;5.91;53.42;102056.87;4376764;32;35394;-80
2022/03/19 04:03:49;;;;;;;;;;;;;;;5.87;53.57;102051.78;4373577;32;35090;-79
2022/03/19 04:06:17;;;;;;;;;;;;;;;5.85;53.76;102053.59;4403678;32;33939;-80
2022/03/19 04:09:06;;;;;;;;;;;;;;;5.80;54.12;102051.13;4376492;32;33556;-80
2022/03/19 04:11:37;;;;;;;;;;;;;;;5.97;53.57;102053.13;4370111;32;35274;-79
2022/03/19 04:14:05;;;;;;;;;;;;;;;6.01;53.37;102044.13;4387838;32;34712;-79
2022/03/19 04:16:37;;;;;;;;;;;;;;;5.74;54.12;102040.78;4364418;32;32144;-79
2022/03/19 04:19:05;;;;;;;;;;;;;;;5.90;53.97;102036.66;4388511;32;33798;-80
2022/03/19 04:21:34;;;;;;;;;;;;;;;5.76;54.38;102038.94;4374318;32;35382;-79
2022/03/19 04:24:02;;;;;;;;;;;;;;;5.85;54.52;102043.03;4369763;32;34149;-80
2022/03/19 04:26:30;;;;;;;;;;;;;;;5.95;54.18;102041.75;4366838;32;33153;-79
2022/03/19 04:28:58;;;;;;;;;;;;;;;5.83;54.46;102035.19;4370181;32;33856;-80
2022/03/19 04:31:26;;;;;;;;;;;;;;;5.98;54.08;102037.19;4373004;32;35095;-79
2022/03/19 04:33:54;;;;;;;;;;;;;;;5.79;54.41;102032.72;4396916;32;35384;-80
2022/03/19 04:36:32;;;;;;;;;;;;;;;5.97;54.02;102039.91;4397366;32;32877;-79
2022/03/19 04:39:00;;;;;;;;;;;;;;;5.62;55.03;102038.62;4381920;32;34273;-79
2022/03/19 04:41:28;;;;;;;;;;;;;;;5.94;54.29;102038.25;4394953;32;35275;-80
2022/03/19 04:43:56;;;;;;;;;;;;;;;6.06;53.71;102029.81;4371130;32;34828;-80
2022/03/19 04:46:24;;;;;;;;;;;;;;;6.08;53.48;102038.53;4383980;32;33896;-80
2022/03/19 04:48:53;;;;;;;;;;;;;;;5.98;53.68;102044.28;4395914;32;33604;-80
2022/03/19 04:51:21;;;;;;;;;;;;;;;5.96;53.89;102041.69;4397061;32;35411;-79
2022/03/19 04:53:50;;;;;;;;;;;;;;;5.95;53.86;102041.75;4383005;32;35083;-79
2022/03/19 04:56:23;;;;;;;;;;;;;;;5.71;54.90;102048.81;4394503;32;33354;-80
2022/03/19 04:58:51;;;;;;;;;;;;;;;5.69;55.26;102050.66;4382010;32;33164;-79
2022/03/19 05:01:19;;;;;;;;;;;;;;;5.79;55.20;102053.84;4383126;32;35297;-80
2022/03/19 05:03:48;;;;;;;;;;;;;;;6.06;54.16;102058.03;4397344;32;34333;-80
2022/03/19 05:06:15;;;;;;;;;;;;;;;6.09;54.11;102055.28;4383416;32;33852;-80
2022/03/19 05:08:43;;;;;;;;;;;;;;;6.05;54.20;102053.69;4383869;32;34954;-79
2022/03/19 05:11:14;;;;;;;;;;;;;;;6.15;53.98;102050.59;4382425;32;36526;-80
2022/03/19 05:13:47;;;;;;;;;;;;;;;6.03;54.57;102061.66;4395062;32;35351;-81
2022/03/19 05:16:19;;;;;;;;;;;;;;;5.87;55.24;102057.06;4382939;32;33376;-80
2022/03/19 05:18:47;;;;;;;;;;;;;;;6.03;55.09;102050.22;4396996;32;34867;-80
2022/03/19 05:21:17;;;;;;;;;;;;;;;6.19;54.64;102052.22;4397222;32;35286;-80
2022/03/19 05:23:46;;;;;;;;;;;;;;;6.28;54.31;102048.31;4397225;32;34610;-81
2022/03/19 05:26:19;;;;;;;;;;;;;;;6.35;53.94;102050.63;4397406;32;33009;-80
2022/03/19 05:28:47;;;;;;;;;;;;;;;5.79;56.09;102054.69;4372076;32;33780;-80
2022/03/19 05:31:32;;;;;;;;;;;;;;;6.14;54.99;102053.31;4400732;32;35896;-80
2022/03/19 05:36:47;;;;;;;;;;;;;;;6.27;54.41;102051.88;4407560;32;33213;-81
2022/03/19 05:39:15;;;;;;;;;;;;;;;6.37;54.16;102054.09;4388359;32;33680;-80
2022/03/19 05:41:42;;;;;;;;;;;;;;;6.36;54.10;102048.88;4388206;32;36504;-80
2022/03/19 05:44:10;;;;;;;;;;;;;;;6.39;53.96;102046.09;4395407;32;34683;-81
2022/03/19 05:46:39;;;;;;;;;;;;;;;6.48;53.70;102048.34;4373710;32;32598;-81
2022/03/19 05:49:07;;;;;;;;;;;;;;;6.67;53.09;102044.00;4389214;32;32634;-81
2022/03/19 05:51:34;;;;;;;;;;;;;;;6.40;54.14;102050.44;4410652;32;34019;-82
2022/03/19 05:54:02;;;;;;;;;;;;;;;6.20;55.22;102051.28;4411875;32;34350;-80
2022/03/19 05:56:32;;;;;;;;;;;;;;;6.34;55.28;102048.91;4390740;32;32900;-81
2022/03/19 05:58:59;;;;;;;;;;;;;;;6.64;54.24;102052.06;4385410;32;33401;-81
2022/03/19 06:01:28;;;;;;;;;;;;;;;6.55;54.75;102050.69;4390741;32;34774;-80
2022/03/19 06:03:56;;;;;;;;;;;;;;;6.45;55.44;102053.78;4376550;32;33320;-80
2022/03/19 06:06:24;;;;;;;;;;;;;;;6.77;54.86;102056.78;4395712;32;33557;-80
2022/03/19 06:08:52;;;;;;;;;;;;;;;6.84;54.79;102054.72;4404448;32;34876;-80
2022/03/19 06:11:20;;;;;;;;;;;;;;;6.62;55.71;102056.56;4405548;32;35268;-80
2022/03/19 06:13:47;;;;;;;;;;;;;;;6.89;54.95;102058.03;4382636;32;33234;-80
2022/03/19 06:16:15;;;;;;;;;;;;;;;6.74;55.01;102059.56;4381071;32;33198;-80
2022/03/19 06:18:46;;;;;;;;;;;;;;;6.92;54.56;102063.19;4405754;32;34308;-81
2022/03/19 06:21:13;;;;;;;;;;;;;;;6.73;54.26;102062.25;4383348;32;33947;-80
2022/03/19 06:23:42;;;;;;;;;;;;;;;6.98;53.00;102057.66;4386480;32;34747;-80
2022/03/19 06:26:10;;;;;;;;;;;;;;;6.70;53.88;102065.88;4374153;32;34833;-80
2022/03/19 06:28:37;;;;;;;;;;;;;;;6.36;54.84;102062.94;4385016;32;34774;-80
2022/03/19 06:31:05;;;;;;;;;;;;;;;6.25;54.95;102066.94;4409145;32;34548;-80
2022/03/19 06:33:33;;;;;;;;;;;;;;;6.15;54.72;102060.31;4409353;32;35316;-80
2022/03/19 06:38:49;;;;;;;;;;;;;;;6.07;54.73;102067.69;4402005;32;34452;-80
2022/03/19 06:41:21;;;;;;;;;;;;;;;6.03;55.04;102068.72;4404524;32;34532;-80
2022/03/19 06:43:50;;;;;;;;;;;;;;;5.64;55.89;102070.22;4382704;32;33297;-80
2022/03/19 06:46:18;;;;;;;;;;;;;;;6.14;53.50;102061.25;4394371;32;34997;-81
2022/03/19 06:48:46;;;;;;;;;;;;;;;6.14;52.97;102066.53;4402585;32;33360;-80
2022/03/19 06:51:22;;;;;;;;;;;;;;;6.02;53.18;102061.72;4406204;32;36151;-80
2022/03/19 06:53:50;;;;;;;;;;;;;;;6.05;52.98;102064.25;4406395;32;35474;-80
2022/03/19 06:56:19;;;;;;;;;;;;;;;5.90;53.67;102064.84;4390194;32;33680;-80
2022/03/19 06:58:48;;;;;;;;;;;;;;;6.02;53.50;102065.22;4403984;32;35010;-81
2022/03/19 07:01:17;;;;;;;;;;;;;;;6.06;52.84;102064.16;4379631;32;33962;-79
2022/03/19 07:03:45;;;;;;;;;;;;;;;6.14;52.85;102070.00;4406254;32;34892;-80
2022/03/19 07:06:18;;;;;;;;;;;;;;;6.18;52.62;102062.81;4389152;32;33308;-79
2022/03/19 07:09:05;;;;;;;;;;;;;;;6.32;52.11;102063.97;4402546;32;33889;-80
2022/03/19 07:11:35;;;;;;;;;;;;;;;6.43;52.40;102068.84;4392232;32;34026;-80
2022/03/19 07:14:05;;;;;;;;;;;;;;;7.03;50.37;102064.44;4407423;32;34216;-80
2022/03/19 07:16:33;;;;;;;;;;;;;;;7.05;50.41;102064.34;4406730;32;32878;-80
2022/03/19 07:19:01;;;;;;;;;;;;;;;7.11;50.07;102066.75;4377694;32;33312;-80
2022/03/19 07:21:29;;;;;;;;;;;;;;;7.33;48.78;102063.09;4400219;32;34904;-80
2022/03/19 07:23:57;;;;;;;;;;;;;;;7.37;47.29;102075.25;4406437;32;34749;-80
2022/03/19 07:26:26;;;;;;;;;;;;;;;7.46;47.93;102072.19;4388029;32;32440;-81
2022/03/19 07:28:54;;;;;;;;;;;;;;;7.59;46.51;102076.00;4404988;32;34731;-80
2022/03/19 07:31:23;;;;;;;;;;;;;;;7.72;47.12;102077.16;4399316;32;34825;-80
2022/03/19 07:33:50;;;;;;;;;;;;;;;8.10;44.91;102065.59;4396508;32;33313;-80
2022/03/19 07:36:19;;;;;;;;;;;;;;;7.73;45.62;102072.72;4407204;32;34287;-81
2022/03/19 07:38:47;;;;;;;;;;;;;;;7.47;45.55;102068.59;4407964;32;34910;-80
2022/03/19 07:42:00;;;;;;;;;;;;;;;7.60;45.47;102074.19;4396645;32;35103;-80
2022/03/19 07:44:03;;;;;;;;;;;;;;;7.71;45.22;102066.59;4402794;32;34388;-80
2022/03/19 07:46:31;;;;;;;;;;;;;;;7.96;44.23;102064.53;4388009;32;32336;-80
2022/03/19 07:48:59;;;;;;;;;;;;;;;7.63;44.67;102069.63;4395975;32;34292;-79
2022/03/19 07:51:27;;;;;;;;;;;;;;;7.62;44.67;102074.97;4391628;32;35044;-80
2022/03/19 07:53:57;;;;;;;;;;;;;;;7.77;44.56;102075.16;4391389;32;34038;-80
2022/03/19 07:56:26;;;;;;;;;;;;;;;7.82;44.62;102074.94;4391637;32;34441;-80
2022/03/19 07:58:54;;;;;;;;;;;;;;;8.08;44.07;102078.06;4378876;32;33513;-80
2022/03/19 08:01:21;;;;;;;;;;;;;;;8.20;43.27;102079.31;4405371;32;35978;-80
2022/03/19 08:03:49;;;;;;;;;;;;;;;8.16;42.89;102080.34;4408442;32;35150;-80
2022/03/19 08:06:17;;;;;;;;;;;;;;;8.27;42.91;102086.88;4412943;32;34101;-81
2022/03/19 08:08:44;;;;;;;;;;;;;;;8.07;43.61;102081.66;4388217;32;33452;-81
2022/03/19 08:11:20;;;;;;;;;;;;;;;7.99;43.62;102089.09;4375204;32;34008;-81
2022/03/19 08:13:49;;;;;;;;;;;;;;;7.98;43.38;102082.09;4402528;32;33814;-82
2022/03/19 08:16:25;;;;;;;;;;;;;;;8.10;42.99;102081.50;4411361;32;32660;-81
2022/03/19 08:18:52;;;;;;;;;;;;;;;8.29;43.10;102087.66;4380379;32;33772;-83
2022/03/19 08:21:20;;;;;;;;;;;;;;;8.31;42.72;102079.62;4376416;32;34274;-81
2022/03/19 08:23:49;;;;;;;;;;;;;;;8.27;42.67;102086.88;4388909;32;33978;-80
2022/03/19 08:26:32;;;;;;;;;;;;;;;8.42;42.51;102087.91;4400392;32;33796;-86
2022/03/19 08:29:04;;;;;;;;;;;;;;;8.78;42.21;102084.28;4390915;32;33173;-80
2022/03/19 08:31:32;;;;;;;;;;;;;;;9.01;41.59;102078.66;4375481;32;34014;-81
2022/03/19 08:34:00;;;;;;;;;;;;;;;9.19;41.47;102072.41;4362979;32;33290;-82
2022/03/19 08:36:32;;;;;;;;;;;;;;;9.21;41.35;102068.72;4358921;32;32451;-81
2022/03/19 08:41:55;;;;;;;;;;;;;;;9.40;40.08;102072.12;4370378;32;34529;-81
2022/03/19 08:44:32;;;;;;;;;;;;;;;9.32;40.32;102073.47;4366481;32;33967;-81
2022/03/19 08:47:01;;;;;;;;;;;;;;;9.26;40.87;102079.97;4387542;32;34092;-81
2022/03/19 08:49:29;;;;;;;;;;;;;;;9.53;40.25;102083.81;4366319;32;32796;-82
2022/03/19 08:51:57;;;;;;;;;;;;;;;9.39;40.54;102075.72;4376398;32;34757;-84
2022/03/19 08:54:27;;;;;;;;;;;;;;;9.39;40.37;102077.50;4383704;32;34489;-81
2022/03/19 08:56:55;;;;;;;;;;;;;;;9.41;39.89;102078.28;4375934;32;34609;-81
2022/03/19 08:59:23;;;;;;;;;;;;;;;9.48;40.22;102077.03;4369526;32;34276;-81
2022/03/19 09:01:51;;;;;;;;;;;;;;;9.53;39.92;102075.84;4381326;32;34388;-82
2022/03/19 09:04:21;;;;;;;;;;;;;;;9.67;39.67;102078.63;4358976;32;34417;-81
2022/03/19 09:06:48;;;;;;;;;;;;;;;9.56;39.18;102077.47;4368742;32;33986;-82
2022/03/19 09:09:19;;;;;;;;;;;;;;;9.72;39.56;102073.06;4404529;32;33118;-83
2022/03/19 09:11:48;;;;;;;;;;;;;;;10.13;38.74;102064.53;4388759;32;33915;-82
2022/03/19 09:14:19;;;;;;;;;;;;;;;9.81;39.05;102068.06;4367457;32;33545;-81
2022/03/19 09:16:47;;;;;;;;;;;;;;;10.10;38.88;102075.31;4380539;32;34222;-82
2022/03/19 09:19:14;;;;;;;;;;;;;;;10.38;38.23;102070.13;4373596;32;32886;-83
2022/03/19 09:21:43;;;;;;;;;;;;;;;10.14;37.97;102063.56;4362015;32;34152;-82
2022/03/19 09:24:11;;;;;;;;;;;;;;;10.23;37.63;102073.69;4379898;32;33741;-82
2022/03/19 09:26:39;;;;;;;;;;;;;;;10.39;36.92;102055.88;4377132;32;33019;-83
2022/03/19 09:29:09;;;;;;;;;;;;;;;10.29;37.59;102068.00;4374712;32;34257;-81
2022/03/19 09:31:37;;;;;;;;;;;;;;;10.43;36.86;102060.09;4379919;32;35989;-82
2022/03/19 09:34:05;;;;;;;;;;;;;;;10.35;37.08;102064.13;4371033;32;34679;-83
2022/03/19 09:36:36;;;;;;;;;;;;;;;10.70;36.04;102069.12;4382880;32;34686;-82
2022/03/19 09:39:03;;;;;;;;;;;;;;;10.59;35.93;102071.53;4383739;32;34689;-82
2022/03/19 09:41:31;;;;;;;;;;;;;;;10.48;36.62;102073.13;4369781;32;33906;-82
2022/03/19 09:43:59;;;;;;;;;;;;;;;10.50;36.52;102061.47;4370626;32;34765;-82
2022/03/19 09:46:30;;;;;;;;;;;;;;;10.44;35.61;102066.25;4370506;32;33223;-83
2022/03/19 09:48:58;;;;;;;;;;;;;;;10.72;34.93;102069.03;4384637;32;33264;-82
2022/03/19 09:51:27;;;;;;;;;;;;;;;10.75;34.85;102064.37;4370861;32;33583;-82
2022/03/19 09:53:56;;;;;;;;;;;;;;;10.74;35.11;102075.16;4383500;32;34844;-83
2022/03/19 09:56:31;;;;;;;;;;;;;;;10.68;34.50;102070.16;4383193;32;33599;-83
2022/03/19 09:59:00;;;;;;;;;;;;;;;10.46;36.12;102069.72;4383372;32;34571;-83
2022/03/19 10:01:30;;;;;;;;;;;;;;;10.80;35.85;102067.66;4383116;32;35636;-82
2022/03/19 10:04:02;;;;;;;;;;;;;;;10.89;35.67;102071.56;4370684;32;34659;-88
2022/03/19 10:09:18;;;;;;;;;;;;;;;10.74;35.01;102060.00;4381414;32;34279;-84
2022/03/19 10:11:49;;;;;;;;;;;;;;;11.08;33.13;102058.84;4370493;32;34052;-85
2022/03/19 10:14:22;;;;;;;;;;;;;;;10.79;33.73;102063.28;4381715;32;33952;-85
2022/03/19 10:16:51;;;;;;;;;;;;;;;10.88;33.79;102061.84;4369745;32;35110;-88
2022/03/19 10:19:27;;;;;;;;;;;;;;;11.11;34.47;102054.19;4371018;32;34294;-84
2022/03/19 10:21:55;;;;;;;;;;;;;;;10.97;35.16;102053.31;4382474;32;35161;-83
2022/03/19 10:24:24;;;;;;;;;;;;;;;11.17;34.82;102056.50;4382845;32;34898;-85
2022/03/19 10:26:54;;;;;;;;;;;;;;;11.39;35.45;102049.75;4370183;32;32072;-85
2022/03/19 10:29:30;;;;;;;;;;;;;;;11.63;34.43;102040.25;4382465;32;34163;-83
2022/03/19 10:31:59;;;;;;;;;;;;;;;11.31;34.34;102055.66;4374149;32;34136;-85
2022/03/19 10:34:30;;;;;;;;;;;;;;;11.53;33.24;102047.06;4394510;32;34651;-86
2022/03/19 10:36:58;;;;;;;;;;;;;;;11.55;33.05;102045.16;4385308;32;33926;-85
2022/03/19 10:39:27;;;;;;;;;;;;;;;11.30;33.86;102044.13;4370161;32;32737;-89
2022/03/19 10:41:55;;;;;;;;;;;;;;;11.42;34.20;102049.56;4389238;32;36044;-88
2022/03/19 10:44:27;;;;;;;;;;;;;;;11.69;32.76;102036.31;4394397;32;34136;-84
2022/03/19 10:46:58;;;;;;;;;;;;;;;11.88;32.94;102039.53;4390912;32;32965;-85
2022/03/19 10:49:30;;;;;;;;;;;;;;;12.03;32.84;102034.06;4379379;32;35755;-85
2022/03/19 10:52:02;;;;;;;;;;;;;;;11.85;33.00;102034.41;4392868;32;34751;-84
2022/03/19 10:54:31;;;;;;;;;;;;;;;12.10;32.01;102024.72;4396390;32;34828;-87
2022/03/19 10:57:00;;;;;;;;;;;;;;;12.42;31.82;102028.78;4383939;32;31906;-86
2022/03/19 10:59:31;;;;;;;;;;;;;;;11.86;31.77;102030.78;4393091;32;35207;-85
2022/03/19 11:02:01;;;;;;;;;;;;;;;11.93;32.49;102030.28;4381039;32;34368;-86
2022/03/19 11:04:30;;;;;;;;;;;;;;;12.12;32.05;102016.63;4405410;32;34023;-82
2022/03/19 11:06:59;;;;;;;;;;;;;;;12.28;33.07;102012.81;4382758;32;33629;-88
2022/03/19 11:09:28;;;;;;;;;;;;;;;12.56;30.36;102002.00;4385560;32;33627;-87
2022/03/19 11:12:00;;;;;;;;;;;;;;;12.59;30.50;102001.81;4388324;32;36119;-88
2022/03/19 11:14:29;;;;;;;;;;;;;;;12.76;29.25;101998.84;4374401;32;34939;-88
2022/03/19 11:17:23;;;;;;;;;;;;;;;12.82;28.15;102002.91;4386624;32;33600;-87
2022/03/19 11:20:02;;;;;;;;;;;;;;;12.66;28.03;101994.25;4392834;32;34083;-92
2022/03/19 11:22:42;;;;;;;;;;;;;;;12.77;27.79;101997.88;4372043;32;35690;-88
2022/03/19 11:25:20;;;;;;;;;;;;;;;12.69;27.17;101988.69;4397743;32;34016;-87
2022/03/19 11:27:50;;;;;;;;;;;;;;;12.74;27.52;101986.56;4396985;32;34089;-89
2022/03/19 11:30:45;;;;;;;;;;;;;;;12.92;26.70;101979.97;4381968;32;34791;-91
2022/03/19 11:33:13;;;;;;;;;;;;;;;13.10;27.69;101981.34;4382239;32;34364;-87
2022/03/19 11:35:46;;;;;;;;;;;;;;;13.46;25.66;101970.72;4404035;32;34045;-88
2022/03/19 11:38:20;;;;;;;;;;;;;;;13.14;26.05;101958.81;4389603;32;35040;-91
2022/03/19 11:40:54;;;;;;;;;;;;;;;13.68;25.93;101960.22;4408129;32;33238;-86
2022/03/19 11:43:25;;;;;;;;;;;;;;;13.56;25.75;101969.97;4380054;32;34073;-91
2022/03/19 11:46:03;;;;;;;;;;;;;;;13.01;26.78;101963.28;4397775;32;33183;-88
2022/03/19 11:48:34;;;;;;;;;;;;;;;13.10;26.22;101962.66;4385952;32;33608;-92
2022/03/19 11:51:25;;;;;;;;;;;;;;;13.08;26.73;101960.09;4406800;32;34608;-88
2022/03/19 11:53:56;;;;;;;;;;;;;;;13.37;26.47;101958.00;4409935;32;34487;-88
2022/03/19 11:56:28;;;;;;;;;;;;;;;12.83;27.59;101946.72;4397039;32;33384;-90
2022/03/19 11:58:57;;;;;;;;;;;;;;;12.81;27.19;101940.62;4412452;32;33084;-89
2022/03/19 12:01:46;;;;;;;;;;;;;;;13.13;26.56;101944.56;4398490;32;33728;-92
2022/03/19 12:04:16;;;;;;;;;;;;;;;13.24;26.86;101943.84;4399975;32;34969;-89
2022/03/19 12:07:04;;;;;;;;;;;;;;;13.38;27.59;101949.03;4407957;32;35741;-91
2022/03/19 12:09:53;;;;;;;;;;;;;;;13.79;26.00;101945.06;4403486;32;33641;-91
2022/03/19 12:12:26;;;;;;;;;;;;;;;13.90;26.53;101944.28;4378433;32;34862;-90
2022/03/19 12:14:59;;;;;;;;;;;;;;;13.85;26.13;101946.41;4386298;32;35145;-86
2022/03/19 12:17:26;;;;;;;;;;;;;;;13.88;25.83;101940.88;4386236;32;35868;-88
2022/03/19 12:20:04;;;;;;;;;;;;;;;14.30;26.31;101937.66;4407832;32;33587;-87
2022/03/19 12:22:32;;;;;;;;;;;;;;;14.83;24.37;101937.94;4380953;32;32796;-89
2022/03/19 12:25:08;;;;;;;;;;;;;;;15.46;24.28;101925.66;4376286;32;37121;-89
2022/03/19 12:27:36;;;;;;;;;;;;;;;16.55;22.26;101922.72;4398421;32;36156;-88
2022/03/19 12:30:08;;;;;;;;;;;;;;;16.99;22.07;101920.59;4386592;32;33018;-87
2022/03/19 12:32:48;;;;;;;;;;;;;;;16.98;22.98;101918.88;4395033;32;34171;-90
2022/03/19 12:35:17;;;;;;;;;;;;;;;16.71;21.52;101920.44;4400307;32;35086;-89
2022/03/19 12:37:47;;;;;;;;;;;;;;;16.22;23.05;101925.56;4384599;32;34870;-84
2022/03/19 12:40:17;;;;;;;;;;;;;;;15.94;22.31;101928.81;4411262;32;33010;-82
2022/03/19 12:42:55;;;;;;;;;;;;;;;15.08;24.14;101933.22;4393025;32;34419;-82
2022/03/19 12:45:38;;;;;;;;;;;;;;;15.02;23.38;101925.63;4376315;32;36450;-84
2022/03/19 12:48:12;;;;;;;;;;;;;;;14.48;23.80;101923.75;4407945;32;33838;-91
2022/03/19 12:50:47;;;;;;;;;;;;;;;14.67;24.16;101926.72;4383092;32;32263;-91
2022/03/19 12:53:16;;;;;;;;;;;;;;;15.61;24.11;101923.56;4391245;32;33830;-91
2022/03/19 12:55:43;;;;;;;;;;;;;;;15.60;24.16;101916.50;4386760;32;36018;-89
2022/03/19 12:58:12;;;;;;;;;;;;;;;15.44;23.54;101919.56;4405451;32;36103;-85
2022/03/19 13:00:53;;;;;;;;;;;;;;;15.77;22.63;101922.16;4389266;32;33232;-87
2022/03/19 13:03:29;;;;;;;;;;;;;;;16.08;22.90;101902.56;4383972;32;32913;-89
2022/03/19 13:05:56;;;;;;;;;;;;;;;16.00;21.61;101906.84;4410735;32;35118;-88
2022/03/19 13:08:25;;;;;;;;;;;;;;;15.46;22.45;101914.06;4400826;32;34864;-84
2022/03/19 13:10:54;;;;;;;;;;;;;;;14.92;22.76;101916.62;4392342;32;33123;-87